Time;durP1;ratioP1;P1;durP2;ratioP2;P2;SDS_P1;SDS_P2;PMS_P1;PMS_P2;Temp;Humidity;BMP_temperature;BMP_pressure;BME280_temperature;BME280_humidity;BME280_pressure;Samples;Min_cycle;Max_cycle;Signal;HPM_P1;HPM_P2
2023/11/13 00:02:54;;;;;;;0.65;0.30;;;0.50;99.90;;;;;;25598134;23;20081;-56
2023/11/13 00:12:56;;;;;;;1.48;0.40;;;0.40;99.90;;;;;;25597447;23;20068;-51
2023/11/13 00:22:58;;;;;;;4.43;0.30;;;0.70;99.90;;;;;;25597010;23;20032;-58
2023/11/13 00:33:00;;;;;;;2.35;0.30;;;1.30;99.90;;;;;;25595085;23;20005;-59
2023/11/13 00:43:01;;;;;;;0.80;0.20;;;1.60;99.90;;;;;;25596589;23;20448;-59
2023/11/13 00:53:03;;;;;;;0.22;0.17;;;1.80;99.90;;;;;;25594581;23;20009;-58
2023/11/13 01:03:05;;;;;;;0.75;0.10;;;1.70;99.90;;;;;;25595726;23;20005;-48
2023/11/13 01:13:07;;;;;;;0.60;0.10;;;1.70;99.90;;;;;;25595234;23;20005;-59
2023/11/13 01:23:09;;;;;;;1.00;0.10;;;1.70;99.90;;;;;;25594916;23;20017;-59
2023/11/13 01:33:10;;;;;;;0.40;0.10;;;2.10;99.90;;;;;;25592971;23;20506;-59
2023/11/13 01:43:20;;;;;;;1.17;0.10;;;2.30;99.90;;;;;;25593995;23;20016;-59
2023/11/13 01:53:26;;;;;;;0.10;0.00;;;2.80;99.90;;;;;;25593756;23;20005;-59
2023/11/13 02:03:33;;;;;;;0.30;0.00;;;4.00;99.90;;;;;;25634682;23;20005;-59
2023/11/13 02:13:34;;;;;;;0.57;0.20;;;5.30;99.90;;;;;;25593800;23;20009;-59
2023/11/13 02:23:36;;;;;;;0.98;0.20;;;5.40;99.90;;;;;;25592228;23;20384;-59
2023/11/13 02:33:38;;;;;;;0.05;0.00;;;4.00;99.90;;;;;;25593336;23;20079;-48
2023/11/13 02:43:39;;;;;;;0.08;0.00;;;4.90;99.90;;;;;;25592430;23;20005;-59
2023/11/13 02:53:41;;;;;;;0.22;0.10;;;6.30;99.90;;;;;;25601365;23;20017;-59
2023/11/13 03:03:44;;;;;;;0.40;0.10;;;6.90;99.90;;;;;;25600757;23;20008;-53
2023/11/13 03:13:46;;;;;;;1.02;0.15;;;4.80;99.90;;;;;;25598290;23;20503;-48
2023/11/13 03:23:48;;;;;;;0.43;0.13;;;3.70;99.90;;;;;;25599534;23;20016;-51
2023/11/13 03:33:51;;;;;;;0.10;0.00;;;3.30;99.90;;;;;;25599072;23;20016;-54
2023/11/13 03:43:52;;;;;;;0.00;0.00;;;2.90;99.90;;;;;;25598871;23;20009;-57
2023/11/13 03:53:54;;;;;;;0.17;0.00;;;3.60;99.90;;;;;;25598570;23;20005;-53
2023/11/13 04:03:56;;;;;;;0.10;0.00;;;5.00;99.90;;;;;;25597666;23;20063;-48
2023/11/13 04:13:58;;;;;;;0.10;0.00;;;4.80;99.90;;;;;;25597662;23;20005;-50
2023/11/13 04:24:01;;;;;;;0.05;0.00;;;6.00;99.90;;;;;;25597445;23;20016;-57
2023/11/13 04:34:05;;;;;;;0.10;0.00;;;7.10;99.90;;;;;;25597082;23;20384;-51
2023/11/13 04:44:10;;;;;;;0.10;0.00;;;6.80;99.90;;;;;;25594984;23;20009;-55
2023/11/13 04:54:11;;;;;;;0.10;0.00;;;6.60;99.90;;;;;;25596232;23;20005;-53
2023/11/13 05:04:14;;;;;;;0.00;0.00;;;6.70;99.90;;;;;;25595856;23;20004;-52
2023/11/13 05:14:15;;;;;;;0.10;0.00;;;8.50;99.90;;;;;;25595386;23;20028;-59
2023/11/13 05:24:17;;;;;;;0.35;0.10;;;9.40;98.90;;;;;;25595037;23;20017;-52
2023/11/13 05:34:20;;;;;;;0.30;0.00;;;8.70;98.50;;;;;;25594993;23;20060;-58
2023/11/13 05:44:21;;;;;;;0.40;0.10;;;5.70;99.90;;;;;;25594453;23;20005;-58
2023/11/13 05:54:26;;;;;;;0.25;0.08;;;4.80;99.90;;;;;;25594588;23;20353;-59
2023/11/13 06:04:27;;;;;;;2.92;0.10;;;4.70;99.90;;;;;;25593826;23;20460;-59
2023/11/13 06:14:29;;;;;;;0.00;0.00;;;5.70;99.90;;;;;;25594132;23;20012;-59
2023/11/13 06:24:31;;;;;;;0.20;0.10;;;9.00;99.90;;;;;;25599005;23;20032;-59
2023/11/13 06:34:32;;;;;;;1.48;0.30;;;7.10;99.90;;;;;;25601831;23;20013;-59
2023/11/13 06:44:34;;;;;;;2.25;0.40;;;7.70;99.80;;;;;;25601300;23;20005;-59
2023/11/13 06:54:36;;;;;;;1.73;0.40;;;4.70;99.90;;;;;;25601034;23;20005;-59
2023/11/13 07:04:40;;;;;;;1.00;0.40;;;3.80;99.90;;;;;;25600525;23;20059;-59
2023/11/13 07:14:41;;;;;;;1.58;0.50;;;3.40;99.90;;;;;;25599867;23;20150;-58
2023/11/13 07:24:43;;;;;;;0.75;0.38;;;3.20;99.90;;;;;;25599596;23;20036;-56
2023/11/13 07:34:45;;;;;;;1.55;0.40;;;3.40;99.90;;;;;;25598605;23;20067;-57
2023/11/13 07:44:50;;;;;;;0.70;0.40;;;4.00;99.90;;;;;;25597059;23;20012;-57
2023/11/13 07:54:52;;;;;;;0.80;0.30;;;4.50;99.90;;;;;;25598291;23;20063;-57
2023/11/13 08:04:55;;;;;;;0.93;0.40;;;5.00;99.90;;;;;;25598282;23;20001;-58
2023/11/13 08:14:56;;;;;;;0.52;0.35;;;5.70;99.90;;;;;;25596546;23;20059;-50
2023/11/13 08:24:58;;;;;;;0.82;0.30;;;6.20;99.90;;;;;;25597037;23;20012;-57
2023/11/13 08:35:00;;;;;;;1.35;0.50;;;6.70;99.90;;;;;;25596021;23;20067;-53
2023/11/13 08:45:02;;;;;;;1.00;0.40;;;7.30;99.90;;;;;;25594466;23;20005;-50
2023/11/13 08:55:04;;;;;;;2.95;0.68;;;7.60;99.90;;;;;;25595879;23;20008;-53
2023/11/13 09:05:06;;;;;;;1.40;0.68;;;8.10;99.90;;;;;;25595439;23;20001;-57
2023/11/13 09:15:12;;;;;;;1.85;0.75;;;8.60;99.90;;;;;;25594884;23;20154;-57
2023/11/13 09:25:15;;;;;;;1.48;0.80;;;8.80;99.90;;;;;;25596504;23;20506;-57
2023/11/13 09:35:22;;;;;;;1.38;0.80;;;9.00;99.90;;;;;;25594272;23;20016;-59
2023/11/13 09:45:26;;;;;;;2.50;1.10;;;9.40;99.90;;;;;;25634353;23;20001;-57
2023/11/13 09:55:33;;;;;;;1.77;0.80;;;9.80;99.90;;;;;;25596491;23;20001;-48
2023/11/13 10:05:38;;;;;;;1.90;0.90;;;9.80;99.90;;;;;;25601667;23;20001;-56
2023/11/13 10:15:44;;;;;;;1.70;1.00;;;10.10;99.90;;;;;;25601639;23;20060;-52
2023/11/13 10:25:56;;;;;;;1.45;0.98;;;10.30;99.90;;;;;;25601295;23;20079;-51
2023/11/13 10:36:10;;;;;;;1.75;1.30;;;11.00;99.90;;;;;;25642001;23;20076;-57
2023/11/13 10:46:30;;;;;;;2.25;1.30;;;11.50;99.90;;;;;;25641624;23;20005;-51
2023/11/13 10:56:34;;;;;;;2.17;0.90;;;11.30;99.90;;;;;;25642022;23;20005;-50
2023/11/13 11:06:39;;;;;;;2.38;1.40;;;11.70;99.90;;;;;;25600174;23;20067;-51
2023/11/13 11:16:54;;;;;;;2.45;1.50;;;11.60;98.80;;;;;;25599768;23;20017;-52
2023/11/13 11:27:01;;;;;;;2.30;1.90;;;10.80;99.90;;;;;;25640932;23;20001;-52
2023/11/13 11:37:02;;;;;;;3.10;2.08;;;11.40;99.90;;;;;;25640224;23;20005;-52
2023/11/13 11:47:04;;;;;;;2.22;1.63;;;10.40;99.90;;;;;;25599268;23;20310;-51
2023/11/13 11:57:14;;;;;;;2.88;1.48;;;10.70;99.90;;;;;;25598310;23;20005;-52
2023/11/13 12:07:17;;;;;;;2.47;1.50;;;11.10;99.90;;;;;;25594560;23;20005;-53
2023/11/13 12:17:20;;;;;;;5.45;2.40;;;11.40;99.90;;;;;;25596216;23;20502;-50
2023/11/13 12:27:28;;;;;;;3.92;1.88;;;11.30;99.90;;;;;;25596967;23;20001;-53
2023/11/13 12:37:33;;;;;;;4.53;2.78;;;10.80;99.90;;;;;;25596368;23;20013;-56
2023/11/13 12:47:35;;;;;;;4.15;2.80;;;10.70;99.90;;;;;;25595826;23;20009;-52
2023/11/13 12:57:44;;;;;;;4.60;2.83;;;9.80;99.90;;;;;;25595296;23;20004;-52
2023/11/13 13:07:46;;;;;;;3.83;2.85;;;10.10;99.90;;;;;;25636008;23;20494;-60
2023/11/13 13:17:51;;;;;;;4.82;3.08;;;10.80;99.90;;;;;;25593892;23;20009;-59
2023/11/13 13:27:53;;;;;;;4.07;2.92;;;10.50;99.90;;;;;;25594031;23;20052;-52
2023/11/13 13:37:55;;;;;;;5.85;2.40;;;10.20;99.90;;;;;;25593732;23;20009;-60
2023/11/13 13:47:57;;;;;;;6.13;3.05;;;10.10;99.90;;;;;;25594390;23;20065;-53
2023/11/13 13:58:03;;;;;;;5.93;3.97;;;10.10;99.90;;;;;;25593149;23;20060;-52
2023/11/13 14:08:05;;;;;;;0.60;0.30;;;9.30;99.90;;;;;;25634245;23;20005;-49
2023/11/13 14:18:11;;;;;;;5.53;3.70;;;9.10;99.90;;;;;;25593706;23;20433;-50
2023/11/13 14:28:13;;;;;;;5.22;3.78;;;9.40;99.90;;;;;;25635079;23;20024;-51
2023/11/13 14:38:15;;;;;;;5.20;3.67;;;8.70;99.90;;;;;;25593367;23;20005;-52
2023/11/13 14:48:17;;;;;;;4.93;2.80;;;7.90;99.90;;;;;;25600654;23;20008;-51
2023/11/13 14:58:18;;;;;;;6.15;4.07;;;9.60;99.90;;;;;;25601666;23;20013;-52
2023/11/13 15:08:20;;;;;;;2.70;1.63;;;8.40;99.90;;;;;;25600609;23;20005;-58
2023/11/13 15:18:22;;;;;;;5.32;3.13;;;7.70;99.90;;;;;;25599798;23;20009;-59
2023/11/13 15:28:24;;;;;;;5.07;3.22;;;7.60;99.90;;;;;;25599962;23;20059;-54
2023/11/13 15:38:29;;;;;;;3.15;2.30;;;6.60;99.90;;;;;;25597974;23;20009;-52
2023/11/13 15:48:31;;;;;;;7.47;4.07;;;6.20;99.90;;;;;;25599191;23;20012;-60
2023/11/13 15:58:33;;;;;;;5.85;3.90;;;5.90;99.90;;;;;;25596581;23;20059;-52
2023/11/13 16:08:35;;;;;;;5.97;3.80;;;5.50;99.90;;;;;;25598570;23;20009;-60
2023/11/13 16:18:40;;;;;;;5.88;3.22;;;5.20;99.90;;;;;;25597471;23;20005;-59
2023/11/13 16:28:42;;;;;;;7.05;4.53;;;4.90;99.90;;;;;;25596702;23;20051;-56
2023/11/13 16:38:44;;;;;;;9.32;5.55;;;4.60;99.90;;;;;;25596735;23;20013;-52
2023/11/13 16:48:45;;;;;;;11.85;7.65;;;4.00;99.90;;;;;;25596503;23;20001;-57
2023/11/13 16:58:51;;;;;;;11.25;7.80;;;3.80;99.90;;;;;;25596113;23;20005;-51
2023/11/13 17:08:54;;;;;;;10.30;7.00;;;3.70;99.90;;;;;;25544786;23;20009;-58
2023/11/13 17:18:56;;;;;;;12.82;7.60;;;3.80;99.90;;;;;;25594667;23;20005;-50
2023/11/13 17:28:58;;;;;;;14.02;9.23;;;3.70;99.90;;;;;;25595201;23;20059;-51
2023/11/13 17:39:04;;;;;;;12.52;8.40;;;3.50;99.90;;;;;;25596404;23;20044;-58
2023/11/13 17:49:07;;;;;;;1.95;0.60;;;3.30;99.90;;;;;;25593401;23;20009;-56
2023/11/13 17:59:09;;;;;;;5.35;3.22;;;5.10;99.90;;;;;;25594468;23;20079;-59
2023/11/13 18:09:12;;;;;;;10.30;6.82;;;6.60;99.90;;;;;;25594143;23;20012;-59
2023/11/13 18:19:14;;;;;;;14.63;8.55;;;5.50;99.90;;;;;;25597767;23;20016;-60
2023/11/13 18:29:16;;;;;;;17.25;10.30;;;4.70;99.90;;;;;;25602631;23;20005;-60
2023/11/13 18:39:18;;;;;;;3.58;1.88;;;4.30;99.90;;;;;;25601501;23;20448;-51
2023/11/13 18:49:19;;;;;;;1.50;0.80;;;4.70;99.90;;;;;;25601472;23;20008;-59
2023/11/13 18:59:21;;;;;;;10.13;5.88;;;6.90;99.90;;;;;;25600660;23;20005;-59
2023/11/13 19:09:23;;;;;;;2.25;0.40;;;7.00;99.90;;;;;;25600514;23;20005;-60
2023/11/13 19:19:25;;;;;;;0.32;0.10;;;7.50;99.90;;;;;;25599989;23;20009;-60
2023/11/13 19:29:28;;;;;;;2.08;0.20;;;9.20;99.90;;;;;;25572884;23;20013;-54
2023/11/13 19:39:31;;;;;;;1.05;0.40;;;10.10;99.90;;;;;;25598610;23;20020;-52
2023/11/13 19:49:33;;;;;;;11.60;8.73;;;10.20;99.90;;;;;;25600038;23;20001;-48
2023/11/13 19:59:35;;;;;;;13.93;9.02;;;9.80;99.90;;;;;;25598249;23;20329;-59
2023/11/13 20:09:41;;;;;;;21.23;12.73;;;6.50;99.90;;;;;;25598198;23;20009;-50
2023/11/13 20:19:43;;;;;;;17.10;10.80;;;6.00;99.90;;;;;;25597433;23;20009;-50
2023/11/13 20:29:45;;;;;;;8.13;4.60;;;4.70;99.90;;;;;;25597410;23;20021;-49
2023/11/13 20:39:47;;;;;;;7.65;3.63;;;5.20;99.90;;;;;;25596469;23;20013;-59
2023/11/13 20:49:52;;;;;;;20.95;13.68;;;6.00;99.90;;;;;;25596828;23;20372;-59
2023/11/13 20:59:54;;;;;;;20.80;12.80;;;5.20;99.90;;;;;;25596080;23;20445;-59
2023/11/13 21:09:56;;;;;;;24.85;14.27;;;4.10;99.90;;;;;;25596091;23;20440;-59
2023/11/13 21:19:58;;;;;;;2.22;1.10;;;3.70;99.90;;;;;;25595312;23;20013;-59
2023/11/13 21:30:00;;;;;;;2.20;1.00;;;4.60;99.90;;;;;;25595258;23;20009;-54
2023/11/13 21:40:03;;;;;;;2.10;0.57;;;7.10;99.90;;;;;;25594777;23;20011;-57
2023/11/13 21:50:06;;;;;;;0.47;0.10;;;7.10;99.90;;;;;;25594131;23;20499;-60
2023/11/13 22:00:10;;;;;;;8.98;5.50;;;7.90;99.90;;;;;;25594276;23;20016;-60
2023/11/13 22:10:12;;;;;;;10.63;7.70;;;9.40;99.90;;;;;;25594371;23;20064;-55
2023/11/13 22:20:14;;;;;;;14.20;8.52;;;7.70;99.90;;;;;;25593796;23;20009;-59
2023/11/13 22:30:16;;;;;;;16.15;9.45;;;5.30;99.90;;;;;;25593966;23;20012;-50
2023/11/13 22:40:20;;;;;;;9.98;5.45;;;4.30;99.90;;;;;;25593575;23;20040;-60
2023/11/13 22:50:23;;;;;;;1.90;0.80;;;5.80;99.90;;;;;;25593525;23;20009;-60
2023/11/13 23:00:36;;;;;;;11.35;7.57;;;7.20;99.90;;;;;;25593285;23;20005;-55
2023/11/13 23:10:38;;;;;;;15.48;9.00;;;7.20;99.90;;;;;;25641911;23;20376;-59
2023/11/13 23:20:39;;;;;;;8.75;5.65;;;4.90;99.90;;;;;;25599895;23;20064;-60
2023/11/13 23:30:42;;;;;;;3.75;1.15;;;5.10;99.90;;;;;;25600018;23;20005;-59
2023/11/13 23:40:46;;;;;;;0.93;0.40;;;5.70;99.90;;;;;;25599626;23;20044;-58
2023/11/13 23:50:48;;;;;;;0.28;0.10;;;7.10;99.90;;;;;;25600181;23;20032;-60
